createdAt,value
2019-04-24T00:05:00.000Z,10.6
2019-04-24T00:11:00.000Z,10.6
2019-04-24T00:17:00.000Z,10.6
2019-04-24T00:24:00.000Z,10.5
2019-04-24T00:30:00.000Z,10.5
2019-04-24T00:42:00.000Z,10.5
2019-04-24T00:49:00.000Z,10.5
2019-04-24T01:07:00.000Z,10.4
2019-04-24T01:13:00.000Z,10.4
2019-04-24T01:19:00.000Z,10.4
2019-04-24T01:26:00.000Z,10.3
2019-04-24T01:32:00.000Z,10.3
2019-04-24T01:38:00.000Z,10.3
2019-04-24T01:44:00.000Z,10.4
2019-04-24T01:50:00.000Z,10.4
2019-04-24T01:56:00.000Z,10.4
2019-04-24T02:02:00.000Z,10.4
2019-04-24T02:08:00.000Z,10.4
2019-04-24T02:21:00.000Z,10.4
2019-04-24T02:45:00.000Z,10.4
2019-04-24T02:57:00.000Z,10.5
2019-04-24T03:03:00.000Z,10.5
2019-04-24T03:10:00.000Z,10.5
2019-04-24T03:28:00.000Z,10.6
2019-04-24T03:35:00.000Z,10.7
2019-04-24T03:50:00.000Z,10.7
2019-04-24T04:03:00.000Z,10.7
2019-04-24T04:16:00.000Z,10.6
2019-04-24T04:29:00.000Z,10.7
2019-04-24T04:36:00.000Z,10.7
2019-04-24T04:42:00.000Z,10.7
2019-04-24T04:49:00.000Z,10.8
2019-04-24T04:56:00.000Z,10.9
2019-04-24T05:09:00.000Z,11.0
2019-04-24T05:21:00.000Z,11.1
2019-04-24T05:28:00.000Z,11.3
2019-04-24T05:34:00.000Z,11.5
2019-04-24T05:40:00.000Z,11.6
2019-04-24T05:47:00.000Z,11.7
2019-04-24T05:53:00.000Z,11.8
2019-04-24T05:58:00.000Z,11.9
2019-04-24T06:04:00.000Z,12.1
2019-04-24T06:16:00.000Z,12.3
2019-04-24T06:23:00.000Z,12.4
2019-04-24T06:29:00.000Z,12.5
2019-04-24T06:42:00.000Z,12.8
2019-04-24T06:53:00.000Z,13.1
2019-04-24T07:00:00.000Z,13.2
2019-04-24T07:06:00.000Z,13.4
2019-04-24T07:18:00.000Z,13.9
2019-04-24T07:31:00.000Z,14.6
2019-04-24T07:37:00.000Z,14.9
2019-04-24T07:43:00.000Z,15.4
2019-04-24T07:55:00.000Z,16.8
2019-04-24T08:01:00.000Z,17.2
2019-04-24T08:07:00.000Z,17.4
2019-04-24T08:20:00.000Z,18.9
2019-04-24T08:26:00.000Z,19.4
2019-04-24T08:32:00.000Z,19.9
2019-04-24T08:50:00.000Z,20.4
2019-04-24T08:56:00.000Z,20.5
2019-04-24T09:02:00.000Z,20.6
2019-04-24T09:08:00.000Z,20.7
2019-04-24T09:15:00.000Z,21.0
2019-04-24T09:50:00.000Z,22.6
2019-04-24T09:56:00.000Z,23.1
2019-04-24T10:02:00.000Z,23.2
2019-04-24T10:08:00.000Z,23.3
2019-04-24T10:14:00.000Z,23.5
2019-04-24T10:21:00.000Z,23.6
2019-04-24T10:38:00.000Z,23.4
2019-04-24T10:45:00.000Z,23.5
2019-04-24T10:52:00.000Z,23.6
2019-04-24T10:58:00.000Z,23.7
2019-04-24T11:04:00.000Z,23.6
2019-04-24T11:10:00.000Z,23.5
2019-04-24T11:16:00.000Z,23.4
2019-04-24T11:23:00.000Z,23.2
2019-04-24T11:29:00.000Z,23.1
2019-04-24T11:35:00.000Z,22.8
2019-04-24T11:41:00.000Z,22.5
2019-04-24T11:47:00.000Z,22.4
2019-04-24T11:53:00.000Z,22.5
2019-04-24T12:00:00.000Z,22.5
2019-04-24T12:06:00.000Z,22.5
2019-04-24T12:12:00.000Z,22.6
2019-04-24T12:18:00.000Z,22.6
2019-04-24T12:24:00.000Z,22.8
2019-04-24T12:29:00.000Z,23.0
2019-04-24T12:35:00.000Z,23.1
2019-04-24T12:42:00.000Z,23.3
2019-04-24T12:48:00.000Z,23.6
2019-04-24T12:54:00.000Z,23.8
2019-04-24T13:10:00.000Z,24.1
2019-04-24T13:16:00.000Z,24.4
2019-04-24T13:23:00.000Z,24.5
2019-04-24T13:34:00.000Z,24.5
2019-04-24T13:40:00.000Z,24.6
2019-04-24T13:47:00.000Z,24.5
2019-04-24T13:53:00.000Z,24.5
2019-04-24T13:59:00.000Z,24.5
2019-04-24T14:06:00.000Z,24.5
2019-04-24T14:18:00.000Z,24.3
2019-04-24T14:24:00.000Z,24.3
2019-04-24T14:30:00.000Z,24.3
2019-04-24T14:36:00.000Z,24.1
2019-04-24T14:43:00.000Z,24.0
2019-04-24T14:49:00.000Z,24.0
2019-04-24T14:55:00.000Z,23.9
2019-04-24T15:01:00.000Z,23.8
2019-04-24T15:07:00.000Z,23.7
2019-04-24T15:14:00.000Z,23.6
2019-04-24T15:20:00.000Z,23.6
2019-04-24T15:26:00.000Z,23.5
2019-04-24T15:33:00.000Z,23.5
2019-04-24T15:56:00.000Z,23.1
2019-04-24T16:01:00.000Z,23.0
2019-04-24T16:08:00.000Z,22.9
2019-04-24T16:13:00.000Z,22.8
2019-04-24T16:35:00.000Z,22.3
2019-04-24T16:42:00.000Z,22.1
2019-04-24T16:54:00.000Z,21.7
2019-04-24T17:00:00.000Z,21.6
2019-04-24T17:24:00.000Z,21.1
2019-04-24T17:30:00.000Z,21.0
2019-04-24T17:36:00.000Z,20.8
2019-04-24T17:41:00.000Z,20.7
2019-04-24T17:46:00.000Z,20.6
2019-04-24T17:53:00.000Z,20.4
2019-04-24T17:59:00.000Z,20.3
2019-04-24T18:04:00.000Z,20.2
2019-04-24T18:09:00.000Z,20.1
2019-04-24T18:14:00.000Z,20.0
2019-04-24T18:19:00.000Z,19.9
2019-04-24T18:24:00.000Z,19.9
2019-04-24T18:29:00.000Z,19.8
2019-04-24T18:34:00.000Z,19.7
2019-04-24T18:39:00.000Z,19.6
2019-04-24T18:44:00.000Z,19.5
2019-04-24T18:49:00.000Z,19.4
2019-04-24T18:54:00.000Z,19.4
2019-04-24T18:59:00.000Z,19.3
2019-04-24T19:04:00.000Z,19.2
2019-04-24T19:09:00.000Z,19.1
2019-04-24T19:14:00.000Z,19.1
2019-04-24T19:19:00.000Z,19.1
2019-04-24T19:24:00.000Z,19.1
2019-04-24T19:29:00.000Z,19.0
2019-04-24T19:34:00.000Z,19.0
2019-04-24T19:39:00.000Z,18.9
2019-04-24T19:44:00.000Z,18.9
2019-04-24T19:49:00.000Z,18.8
2019-04-24T19:54:00.000Z,18.8
2019-04-24T19:59:00.000Z,18.7
2019-04-24T20:04:00.000Z,18.7
2019-04-24T20:09:00.000Z,18.6
2019-04-24T20:14:00.000Z,18.5
2019-04-24T20:19:00.000Z,18.4
2019-04-24T20:24:00.000Z,18.4
2019-04-24T20:29:00.000Z,18.4
2019-04-24T20:34:00.000Z,18.4
2019-04-24T20:39:00.000Z,18.3
2019-04-24T20:44:00.000Z,18.3
2019-04-24T20:49:00.000Z,18.2
2019-04-24T20:54:00.000Z,18.2
2019-04-24T20:59:00.000Z,18.2
2019-04-24T21:04:00.000Z,18.1
2019-04-24T21:09:00.000Z,18.0
2019-04-24T21:14:00.000Z,18.0
2019-04-24T21:19:00.000Z,17.9
2019-04-24T21:24:00.000Z,17.9
2019-04-24T21:29:00.000Z,17.8
2019-04-24T21:34:00.000Z,17.8
2019-04-24T21:39:00.000Z,17.7
2019-04-24T21:44:00.000Z,17.6
2019-04-24T21:49:00.000Z,17.6
2019-04-24T21:54:00.000Z,17.5
2019-04-24T21:59:00.000Z,17.4
2019-04-24T22:04:00.000Z,17.3
2019-04-24T22:09:00.000Z,17.2
2019-04-24T22:14:00.000Z,17.2
2019-04-24T22:19:00.000Z,17.1
2019-04-24T22:25:00.000Z,17.1
2019-04-24T22:30:00.000Z,17.0
2019-04-24T22:35:00.000Z,16.9
2019-04-24T22:40:00.000Z,16.9
2019-04-24T22:45:00.000Z,16.9
2019-04-24T22:50:00.000Z,16.8
2019-04-24T22:55:00.000Z,16.8
2019-04-24T23:00:00.000Z,16.7
2019-04-24T23:05:00.000Z,16.7
2019-04-24T23:10:00.000Z,16.7
2019-04-24T23:15:00.000Z,16.6
2019-04-24T23:20:00.000Z,16.6
2019-04-24T23:25:00.000Z,16.5
2019-04-24T23:30:00.000Z,16.5
2019-04-24T23:35:00.000Z,16.4
2019-04-24T23:40:00.000Z,16.4
2019-04-24T23:45:00.000Z,16.3
2019-04-24T23:50:00.000Z,16.3
2019-04-24T23:55:00.000Z,16.2
